Time;durP1;ratioP1;P1;durP2;ratioP2;P2;SDS_P1;SDS_P2;PMS_P1;PMS_P2;Temp;Humidity;BMP_temperature;BMP_pressure;BME280_temperature;BME280_humidity;BME280_pressure;Samples;Min_cycle;Max_cycle;Signal;HPM_P1;HPM_P2
2022/06/13 05:59:23;;;;;;;2.60;2.40;;;;;;;39.14;22.79;100322.81;6607871;26;209510;-87
2022/06/13 06:02:26;;;;;;;4.43;2.70;;;;;;;39.71;21.16;100314.75;6611426;27;34906;-88
2022/06/13 06:05:29;;;;;;;2.92;2.20;;;;;;;37.86;23.19;100319.59;6616190;27;35145;-88
2022/06/13 06:08:36;;;;;;;4.68;2.58;;;;;;;40.15;21.46;100324.53;6621512;27;34170;-88
2022/06/13 06:11:39;;;;;;;4.10;2.55;;;;;;;40.17;21.65;100322.34;6615226;26;35182;-91
2022/06/13 06:14:41;;;;;;;2.95;2.47;;;;;;;40.41;21.30;100324.56;6617819;26;35373;-91
2022/06/13 06:32:46;;;;;;;2.37;2.00;;;;;;;37.05;23.33;100310.84;6605588;26;20053;-91
2022/06/13 06:35:51;;;;;;;2.72;2.30;;;;;;;38.56;20.89;100316.13;6609319;27;34887;-92
2022/06/13 06:42:45;;;;;;;2.50;2.30;;;;;;;38.24;20.41;100323.31;6609390;26;20036;-91
2022/06/13 06:45:57;;;;;;;2.30;2.10;;;;;;;35.14;23.20;100329.22;6608567;27;34005;-91
2022/06/13 06:49:00;;;;;;;4.55;2.40;;;;;;;34.54;24.70;100323.66;6607435;27;33750;-90
2022/06/13 06:52:04;;;;;;;3.03;2.55;;;;;;;34.45;25.28;100316.00;6608776;27;33698;-90
2022/06/13 07:02:02;;;;;;;4.12;2.70;;;;;;;33.68;26.89;100307.38;6610041;27;34079;-90
2022/06/13 07:05:07;;;;;;;5.22;2.53;;;;;;;32.69;27.24;100301.69;6608759;27;34219;-90
2022/06/13 07:08:10;;;;;;;3.53;2.53;;;;;;;31.72;29.50;100314.53;6610400;27;33746;-91
2022/06/13 07:14:42;;;;;;;3.10;2.70;;;;;;;30.72;29.86;100311.00;6594377;27;32484;-90
2022/06/13 07:17:45;;;;;;;3.10;2.80;;;;;;;30.05;31.86;100312.59;6615313;27;33766;-91
2022/06/13 07:20:48;;;;;;;3.92;2.97;;;;;;;29.56;33.51;100309.91;6590786;27;33431;-90
2022/06/13 07:23:50;;;;;;;3.97;2.80;;;;;;;30.85;31.58;100310.12;6610452;27;34031;-91
2022/06/13 07:26:54;;;;;;;4.60;2.78;;;;;;;31.00;29.70;100301.69;6610898;26;33697;-91
2022/06/13 07:29:58;;;;;;;7.57;2.87;;;;;;;30.64;31.20;100304.69;6592815;27;32747;-89
2022/06/13 07:33:00;;;;;;;4.12;3.08;;;;;;;30.72;30.85;100300.88;6590122;27;32996;-91
2022/06/13 07:36:03;;;;;;;3.10;2.70;;;;;;;31.19;30.15;100300.78;6609135;26;33928;-90
2022/06/13 07:39:06;;;;;;;3.85;3.00;;;;;;;30.12;30.73;100299.78;6608393;27;34887;-91
2022/06/13 07:49:21;;;;;;;3.33;2.55;;;;;;;31.92;29.49;100294.44;6608387;27;20068;-93
2022/06/13 07:52:26;;;;;;;3.37;2.40;;;;;;;30.48;28.54;100302.34;6608526;27;34294;-91
2022/06/13 07:55:31;;;;;;;2.95;2.75;;;;;;;30.86;29.72;100301.72;6620511;26;34438;-90
2022/06/13 07:58:36;;;;;;;6.22;2.90;;;;;;;31.33;28.51;100296.16;6618886;26;34738;-89
2022/06/13 08:01:39;;;;;;;6.53;3.10;;;;;;;31.86;30.22;100296.12;6611818;27;34007;-90
2022/06/13 08:04:42;;;;;;;5.22;2.90;;;;;;;32.59;27.34;100293.09;6611103;27;33601;-89
2022/06/13 08:08:00;;;;;;;3.15;2.85;;;;;;;32.87;27.03;100286.31;6597548;27;33200;-90
2022/06/13 08:11:06;;;;;;;7.75;2.65;;;;;;;32.58;28.41;100281.28;6613456;26;33662;-90
2022/06/13 08:14:10;;;;;;;5.80;3.17;;;;;;;33.24;27.42;100275.34;6624523;27;34619;-90
2022/06/13 08:17:15;;;;;;;6.45;2.70;;;;;;;33.86;27.83;100260.56;6622486;26;34668;-88
2022/06/13 08:20:23;;;;;;;5.55;2.90;;;;;;;34.39;25.82;100274.56;6608919;26;34487;-91
2022/06/13 08:27:12;;;;;;;3.80;2.92;;;;;;;34.74;25.29;100272.09;6594049;26;20075;-90
2022/06/13 08:33:53;;;;;;;4.22;2.60;;;;;;;35.37;24.17;100266.84;6602392;26;20072;-89
2022/06/13 08:36:56;;;;;;;5.97;2.80;;;;;;;35.15;23.99;100269.44;6607887;27;34118;-90
2022/06/13 08:39:59;;;;;;;2.95;2.65;;;;;;;35.21;23.39;100272.03;6609158;26;34765;-89
2022/06/13 08:43:35;;;;;;;4.22;2.90;;;;;;;33.48;25.50;100267.19;6608224;27;34474;-90
2022/06/13 08:47:00;;;;;;;2.97;2.67;;;;;;;33.56;25.36;100255.94;6614503;27;35297;-89
2022/06/13 08:50:16;;;;;;;14.02;3.55;;;;;;;34.13;23.89;100260.19;6608361;27;33838;-90
2022/06/13 08:53:33;;;;;;;4.72;2.85;;;;;;;34.30;24.98;100265.00;6609292;27;34653;-91
2022/06/13 08:56:36;;;;;;;4.55;2.90;;;;;;;34.55;24.99;100250.16;6613136;26;35119;-90
2022/06/13 11:25:32;;;;;;;3.22;2.92;;;;;;;32.54;27.19;100094.22;6614492;27;33519;-90
2022/06/13 11:28:39;;;;;;;4.03;3.55;;;;;;;31.51;29.54;100080.81;6622703;27;34447;-88
2022/06/13 11:31:57;;;;;;;4.00;3.70;;;;;;;32.33;28.18;100072.72;6612504;27;35916;-91
2022/06/13 11:35:00;;;;;;;3.55;3.25;;;;;;;32.29;28.43;100085.19;6621974;27;34707;-91
2022/06/13 11:38:27;;;;;;;4.47;3.30;;;;;;;31.78;28.55;100077.84;6621807;27;35363;-91
2022/06/13 11:41:45;;;;;;;4.82;3.00;;;;;;;31.35;30.26;100078.63;6592379;27;33964;-90
2022/06/13 11:44:57;;;;;;;3.83;3.15;;;;;;;31.95;28.83;100071.81;6588387;27;34007;-91
2022/06/13 11:48:00;;;;;;;3.10;2.90;;;;;;;31.97;29.42;100076.03;6607101;27;33813;-90
2022/06/13 11:51:05;;;;;;;4.45;3.42;;;;;;;31.75;30.58;100078.31;6608978;27;34005;-91
2022/06/13 11:54:47;;;;;;;4.05;3.45;;;;;;;31.53;30.37;100064.16;6594890;27;33466;-91
2022/06/13 11:57:53;;;;;;;3.70;3.37;;;;;;;31.50;31.43;100065.44;6511030;27;34747;-90
2022/06/13 12:01:25;;;;;;;5.75;3.50;;;;;;;31.49;32.07;100072.00;6514121;27;34514;-90
2022/06/13 12:04:30;;;;;;;3.85;3.40;;;;;;;31.04;33.19;100073.75;6506284;27;34420;-90
2022/06/13 12:07:33;;;;;;;7.32;3.75;;;;;;;31.23;32.23;100068.38;6506586;27;34788;-89
2022/06/13 12:10:41;;;;;;;3.72;3.42;;;;;;;30.66;35.05;100063.56;6500486;27;33903;-90
2022/06/13 12:13:45;;;;;;;5.35;3.90;;;;;;;29.72;36.47;100064.63;6481043;27;33057;-91
2022/06/13 12:16:48;;;;;;;5.68;3.90;;;;;;;29.72;37.51;100056.44;6500958;27;34412;-90
2022/06/13 12:20:03;;;;;;;5.40;3.37;;;;;;;31.04;34.37;100051.84;6505386;27;35321;-90
2022/06/13 12:23:11;;;;;;;3.95;3.67;;;;;;;31.25;32.97;100052.53;6494359;27;35068;-90
2022/06/13 12:26:30;;;;;;;4.12;3.70;;;;;;;31.05;33.12;100045.31;6498645;27;32719;-90
2022/06/13 13:00:33;;;;;;;5.47;4.10;;;;;;;29.88;36.13;100016.03;6594053;27;20047;-90
2022/06/13 13:15:11;;;;;;;6.90;4.80;;;;;;;30.00;37.22;100011.59;6503936;27;20076;-90
2022/06/13 13:18:36;;;;;;;7.10;5.32;;;;;;;29.42;40.07;100018.59;6432256;27;33107;-90
2022/06/13 13:21:54;;;;;;;6.30;5.70;;;;;;;28.83;43.74;100029.16;6446837;27;34226;-90
2022/06/13 13:25:16;;;;;;;8.10;5.40;;;;;;;28.21;46.03;100033.50;6473199;27;34304;-89
2022/06/13 13:28:32;;;;;;;12.32;5.93;;;;;;;27.84;47.66;100036.44;6472562;27;33658;-90
2022/06/13 13:31:37;;;;;;;5.95;5.35;;;;;;;28.40;45.12;100031.09;6477135;27;34599;-90
2022/06/13 13:35:02;;;;;;;9.52;5.60;;;;;;;28.04;45.57;100038.44;6507204;27;34139;-90
2022/06/13 13:38:22;;;;;;;8.43;5.80;;;;;;;27.94;46.29;100027.91;6578889;27;35279;-89
2022/06/13 13:41:58;;;;;;;8.70;5.53;;;;;;;28.28;45.30;100039.03;6611226;27;34102;-89
2022/06/13 13:45:25;;;;;;;7.03;5.47;;;;;;;27.93;46.16;100039.00;6610947;27;34197;-92
2022/06/13 13:48:36;;;;;;;6.47;5.68;;;;;;;27.93;46.83;100023.50;6566346;27;35140;-89
2022/06/13 13:51:49;;;;;;;6.03;5.53;;;;;;;28.24;45.83;100032.28;6589745;27;32701;-89
2022/06/13 13:55:01;;;;;;;8.48;4.82;;;;;;;28.10;45.14;100024.00;6609938;26;34868;-90
2022/06/13 13:58:17;;;;;;;5.75;5.25;;;;;;;28.56;43.75;100037.28;6591634;27;33561;-89
2022/06/13 14:01:47;;;;;;;6.43;4.95;;;;;;;28.10;44.76;100026.75;6614956;27;35556;-90
2022/06/13 14:05:34;;;;;;;5.15;4.75;;;;;;;28.08;43.82;100030.72;6611566;27;33809;-88
2022/06/13 14:16:15;;;;;;;6.78;4.90;;;;;;;27.89;43.70;100016.75;6618781;26;20043;-87
2022/06/13 14:19:30;;;;;;;5.95;4.43;;;;;;;28.15;43.64;100023.41;6609911;26;33836;-89
2022/06/13 14:22:42;;;;;;;8.50;4.50;;;;;;;27.67;45.00;100026.87;6603988;26;33625;-88
2022/06/13 14:25:45;;;;;;;4.70;4.30;;;;;;;27.46;44.93;100020.41;6598509;27;32590;-88
2022/06/13 14:28:54;;;;;;;7.75;4.07;;;;;;;27.41;43.62;100018.25;6618017;26;34244;-87
2022/06/13 14:32:05;;;;;;;6.95;4.37;;;;;;;27.93;43.89;100012.59;6589351;27;32940;-88
2022/06/13 14:35:38;;;;;;;4.30;3.97;;;;;;;28.11;43.15;100013.97;6587311;27;32633;-91
2022/06/13 14:38:53;;;;;;;5.82;3.72;;;;;;;27.58;44.47;100007.97;6587004;27;33139;-88
2022/06/13 14:42:08;;;;;;;3.72;3.30;;;;;;;27.55;42.32;100016.50;6605007;27;33875;-88
2022/06/13 14:45:41;;;;;;;3.72;3.40;;;;;;;27.48;42.78;100010.16;6606797;26;34288;-88
2022/06/13 14:48:55;;;;;;;4.60;3.30;;;;;;;27.93;42.92;100003.56;6606446;27;34623;-88
2022/06/13 14:52:09;;;;;;;3.28;2.95;;;;;;;27.94;41.80;100013.44;6606459;27;33617;-88
2022/06/13 14:55:15;;;;;;;3.65;3.33;;;;;;;28.13;40.68;100014.59;6587293;27;34059;-88
2022/06/13 14:58:44;;;;;;;3.20;3.00;;;;;;;27.22;43.31;100008.03;6587040;27;33149;-88
2022/06/13 15:02:23;;;;;;;3.97;2.90;;;;;;;26.83;44.53;100007.41;6606288;27;34583;-87
2022/06/13 15:05:31;;;;;;;3.05;2.80;;;;;;;26.81;45.45;100013.06;6606187;27;33802;-88
2022/06/13 15:08:50;;;;;;;2.95;2.75;;;;;;;26.70;44.34;100019.81;6587189;27;33756;-88
2022/06/13 15:11:55;;;;;;;3.75;2.50;;;;;;;26.28;44.31;100024.97;6588209;27;32903;-87
2022/06/13 15:15:01;;;;;;;3.03;2.83;;;;;;;26.30;45.00;100022.88;6587882;27;33505;-88
2022/06/13 15:18:06;;;;;;;3.95;2.90;;;;;;;26.21;45.98;100019.38;6607812;27;33885;-88
2022/06/13 15:21:17;;;;;;;3.28;2.95;;;;;;;26.30;46.48;100032.94;6569620;27;33015;-88
2022/06/13 15:24:50;;;;;;;4.55;2.95;;;;;;;26.24;46.42;100029.94;6607786;27;33966;-87
2022/06/13 15:27:58;;;;;;;3.47;3.10;;;;;;;26.62;45.90;100036.25;6609803;27;34437;-88
